createdAt,value
2023-05-21T00:02:23.446Z,15.14
2023-05-21T00:04:51.335Z,15.13
2023-05-21T00:07:18.697Z,15.13
2023-05-21T00:09:47.694Z,15.14
2023-05-21T00:12:14.081Z,15.13
2023-05-21T00:14:40.614Z,15.10
2023-05-21T00:17:07.284Z,15.10
2023-05-21T00:19:33.787Z,15.10
2023-05-21T00:22:03.736Z,15.08
2023-05-21T00:24:30.267Z,15.07
2023-05-21T00:26:56.982Z,15.06
2023-05-21T00:29:23.918Z,15.05
2023-05-21T00:31:52.126Z,15.05
2023-05-21T00:34:18.555Z,15.04
2023-05-21T00:36:46.256Z,15.01
2023-05-21T00:39:13.843Z,15.01
2023-05-21T00:41:40.585Z,15.00
2023-05-21T00:44:07.137Z,14.98
2023-05-21T00:46:33.741Z,14.97
2023-05-21T00:49:00.487Z,14.98
2023-05-21T00:51:30.235Z,14.95
2023-05-21T00:53:57.891Z,14.95
2023-05-21T00:56:27.186Z,14.96
2023-05-21T00:58:56.044Z,14.95
2023-05-21T01:01:25.641Z,14.95
2023-05-21T01:03:57.789Z,14.92
2023-05-21T01:06:24.525Z,14.91
2023-05-21T01:08:50.978Z,14.90
2023-05-21T01:11:18.649Z,14.90
2023-05-21T01:13:46.589Z,14.88
2023-05-21T01:16:13.691Z,14.86
2023-05-21T01:18:43.517Z,14.86
2023-05-21T01:21:10.284Z,14.86
2023-05-21T01:23:36.928Z,14.83
2023-05-21T01:26:03.436Z,14.82
2023-05-21T01:31:02.648Z,14.83
2023-05-21T01:33:38.897Z,14.79
2023-05-21T01:36:26.725Z,14.79
2023-05-21T01:39:02.078Z,14.74
2023-05-21T01:41:31.862Z,14.70
2023-05-21T01:43:58.889Z,14.67
2023-05-21T01:46:28.977Z,14.67
2023-05-21T01:48:56.835Z,14.66
2023-05-21T01:51:24.167Z,14.64
2023-05-21T01:53:50.707Z,14.64
2023-05-21T01:56:17.300Z,14.63
2023-05-21T01:58:44.058Z,14.63
2023-05-21T02:01:11.713Z,14.62
2023-05-21T02:03:38.677Z,14.60
2023-05-21T02:06:05.489Z,14.60
2023-05-21T02:08:32.064Z,14.59
2023-05-21T02:10:58.585Z,14.59
2023-05-21T02:13:26.602Z,14.56
2023-05-21T02:15:54.936Z,14.54
2023-05-21T02:18:22.155Z,14.53
2023-05-21T02:20:48.652Z,14.48
2023-05-21T02:23:18.626Z,14.48
2023-05-21T02:25:45.051Z,14.49
2023-05-21T02:28:12.781Z,14.45
2023-05-21T02:30:39.292Z,14.43
2023-05-21T02:33:05.763Z,14.40
2023-05-21T02:35:32.310Z,14.39
2023-05-21T02:37:59.369Z,14.40
2023-05-21T02:40:26.219Z,14.40
2023-05-21T02:42:52.739Z,14.38
2023-05-21T02:45:19.196Z,14.37
2023-05-21T02:47:45.766Z,14.36
2023-05-21T02:50:13.742Z,14.37
2023-05-21T02:52:41.529Z,14.35
2023-05-21T02:55:08.462Z,14.32
2023-05-21T02:57:34.903Z,14.29
2023-05-21T03:00:01.361Z,14.29
2023-05-21T03:02:27.893Z,14.28
2023-05-21T03:04:54.550Z,14.25
2023-05-21T03:07:21.766Z,14.23
2023-05-21T03:09:48.225Z,14.22
2023-05-21T03:12:14.736Z,14.21
2023-05-21T03:14:43.950Z,14.20
2023-05-21T03:17:13.748Z,14.19
2023-05-21T03:19:41.653Z,14.18
2023-05-21T03:22:08.424Z,14.21
2023-05-21T03:24:35.247Z,14.17
2023-05-21T03:27:02.242Z,14.18
2023-05-21T03:29:28.942Z,14.19
2023-05-21T03:31:55.817Z,14.18
2023-05-21T03:34:22.477Z,14.17
2023-05-21T03:36:49.146Z,14.17
2023-05-21T03:39:15.865Z,14.18
2023-05-21T03:41:42.729Z,14.18
2023-05-21T03:44:09.292Z,14.17
2023-05-21T03:46:36.048Z,14.18
2023-05-21T03:49:02.805Z,14.17
2023-05-21T03:51:30.752Z,14.17
2023-05-21T03:53:59.029Z,14.17
2023-05-21T03:56:26.238Z,14.19
2023-05-21T03:58:52.918Z,14.20
2023-05-21T04:01:19.725Z,14.21
2023-05-21T04:03:46.638Z,14.21
2023-05-21T04:06:13.401Z,14.22
2023-05-21T04:08:39.854Z,14.19
2023-05-21T04:11:06.379Z,14.20
2023-05-21T04:13:32.911Z,14.18
2023-05-21T04:15:59.739Z,14.17
2023-05-21T04:18:26.732Z,14.13
2023-05-21T04:20:53.795Z,14.12
2023-05-21T04:23:23.481Z,14.13
2023-05-21T04:25:50.816Z,14.13
2023-05-21T04:28:21.027Z,14.14
2023-05-21T04:30:48.245Z,14.16
2023-05-21T04:33:18.189Z,14.19
2023-05-21T04:35:47.358Z,14.19
2023-05-21T04:38:14.020Z,14.20
2023-05-21T04:40:40.564Z,14.23
2023-05-21T04:43:08.022Z,14.21
2023-05-21T04:45:34.525Z,14.19
2023-05-21T04:48:01.229Z,14.19
2023-05-21T04:50:30.632Z,14.20
2023-05-21T04:52:58.724Z,14.20
2023-05-21T04:55:25.912Z,14.19
2023-05-21T04:57:52.995Z,14.22
2023-05-21T05:00:20.321Z,14.25
2023-05-21T05:02:46.863Z,14.29
2023-05-21T05:05:13.422Z,14.30
2023-05-21T05:07:40.035Z,14.32
2023-05-21T05:10:07.221Z,14.35
2023-05-21T05:12:33.621Z,14.35
2023-05-21T05:15:00.049Z,14.36
2023-05-21T05:17:26.601Z,14.38
2023-05-21T05:19:53.267Z,14.41
2023-05-21T05:22:19.812Z,14.43
2023-05-21T05:24:46.308Z,14.41
2023-05-21T05:27:12.776Z,14.40
2023-05-21T05:29:39.224Z,14.45
2023-05-21T05:32:06.184Z,14.49
2023-05-21T05:34:32.748Z,14.51
2023-05-21T05:36:59.183Z,14.53
2023-05-21T05:39:25.569Z,14.53
2023-05-21T05:41:53.868Z,14.58
2023-05-21T05:44:20.469Z,14.63
2023-05-21T05:46:47.118Z,14.64
2023-05-21T05:49:16.763Z,14.65
2023-05-21T05:51:46.258Z,14.65
2023-05-21T05:54:12.709Z,14.63
2023-05-21T05:56:39.399Z,14.68
2023-05-21T05:59:06.043Z,14.66
2023-05-21T06:01:32.522Z,14.64
2023-05-21T06:03:58.975Z,14.69
2023-05-21T06:06:25.507Z,14.71
2023-05-21T06:08:52.038Z,14.78
2023-05-21T06:11:19.006Z,14.84
2023-05-21T06:13:45.937Z,14.90
2023-05-21T06:16:12.678Z,15.00
2023-05-21T06:18:39.222Z,15.15
2023-05-21T06:21:05.907Z,15.26
2023-05-21T06:23:32.752Z,15.35
2023-05-21T06:25:59.836Z,15.52
2023-05-21T06:28:26.228Z,15.71
2023-05-21T06:30:52.713Z,15.93
2023-05-21T06:33:19.375Z,15.94
2023-05-21T06:35:45.963Z,15.99
2023-05-21T06:38:12.568Z,15.96
2023-05-21T06:40:39.028Z,15.96
2023-05-21T06:43:05.526Z,16.04
2023-05-21T06:45:32.060Z,16.07
2023-05-21T06:47:58.653Z,16.13
2023-05-21T06:50:25.181Z,16.16
2023-05-21T06:52:51.646Z,16.14
2023-05-21T06:55:18.243Z,16.20
2023-05-21T06:57:44.848Z,16.31
2023-05-21T07:00:12.293Z,16.36
2023-05-21T07:02:38.861Z,16.35
2023-05-21T07:05:05.770Z,16.29
2023-05-21T07:07:32.206Z,16.36
2023-05-21T07:09:58.752Z,16.47
2023-05-21T07:12:25.196Z,16.45
2023-05-21T07:14:51.656Z,16.43
2023-05-21T07:17:18.272Z,16.53
2023-05-21T07:19:44.767Z,16.59
2023-05-21T07:22:12.720Z,16.76
2023-05-21T07:24:39.273Z,17.00
2023-05-21T07:27:17.835Z,17.03
2023-05-21T07:29:54.042Z,17.20
2023-05-21T07:32:20.544Z,17.39
2023-05-21T07:34:47.341Z,17.49
2023-05-21T07:37:15.140Z,17.60
2023-05-21T07:39:41.594Z,17.66
2023-05-21T07:42:08.051Z,17.53
2023-05-21T07:44:34.545Z,17.58
2023-05-21T07:47:01.123Z,17.62
2023-05-21T07:49:27.553Z,17.69
2023-05-21T07:51:54.023Z,17.91
2023-05-21T07:54:20.493Z,18.01
2023-05-21T07:56:46.905Z,18.10
2023-05-21T07:59:17.126Z,18.15
2023-05-21T08:01:44.247Z,18.14
2023-05-21T08:04:11.109Z,18.20
2023-05-21T08:06:37.737Z,18.37
2023-05-21T08:09:06.089Z,18.51
2023-05-21T08:11:33.142Z,18.56
2023-05-21T08:13:59.663Z,18.69
2023-05-21T08:16:26.171Z,18.62
2023-05-21T08:18:52.785Z,18.43
2023-05-21T08:21:19.808Z,18.38
2023-05-21T08:23:46.273Z,18.49
2023-05-21T08:26:12.719Z,18.66
2023-05-21T08:28:44.505Z,18.72
2023-05-21T08:31:11.162Z,18.75
2023-05-21T08:33:40.749Z,18.74
2023-05-21T08:36:07.893Z,18.73
2023-05-21T08:38:34.734Z,18.58
2023-05-21T08:41:01.243Z,18.52
2023-05-21T08:43:28.628Z,18.56
2023-05-21T08:45:56.521Z,18.62
2023-05-21T08:48:24.678Z,18.71
2023-05-21T08:50:54.791Z,19.01
2023-05-21T08:53:28.061Z,19.10
2023-05-21T08:55:56.370Z,19.33
2023-05-21T08:58:23.306Z,19.63
2023-05-21T09:00:49.924Z,19.80
2023-05-21T09:05:44.332Z,19.75
2023-05-21T09:08:18.684Z,19.89
2023-05-21T09:10:53.012Z,19.94
2023-05-21T09:13:20.304Z,20.06
2023-05-21T09:15:47.951Z,20.05
2023-05-21T09:18:14.914Z,20.12
2023-05-21T09:20:41.962Z,20.29
2023-05-21T09:23:16.586Z,20.43
2023-05-21T09:25:47.527Z,20.64
2023-05-21T09:28:19.325Z,20.93
2023-05-21T09:30:47.288Z,21.02
2023-05-21T09:33:25.021Z,21.08
2023-05-21T09:35:52.094Z,21.11
2023-05-21T09:38:18.525Z,21.18
2023-05-21T09:40:46.555Z,21.05
2023-05-21T09:43:17.077Z,21.15
2023-05-21T09:45:55.855Z,21.25
2023-05-21T09:48:40.650Z,21.27
2023-05-21T09:51:09.926Z,21.35
2023-05-21T09:53:36.963Z,21.49
2023-05-21T09:56:03.981Z,21.47
2023-05-21T09:58:30.513Z,21.57
2023-05-21T10:00:57.008Z,21.69
2023-05-21T10:03:26.715Z,21.93
2023-05-21T10:05:55.227Z,22.07
2023-05-21T10:08:22.874Z,21.91
2023-05-21T10:10:50.019Z,21.52
2023-05-21T10:13:20.216Z,21.58
2023-05-21T10:15:53.236Z,21.60
2023-05-21T10:18:22.238Z,21.59
2023-05-21T10:20:49.333Z,21.82
2023-05-21T10:23:16.736Z,21.89
2023-05-21T10:25:43.282Z,21.91
2023-05-21T10:28:10.532Z,21.87
2023-05-21T10:30:37.949Z,21.90
2023-05-21T10:33:05.659Z,22.08
2023-05-21T10:35:33.800Z,22.22
2023-05-21T10:38:04.503Z,22.45
2023-05-21T10:40:31.415Z,22.45
2023-05-21T10:43:14.440Z,22.34
2023-05-21T10:46:18.378Z,22.24
2023-05-21T10:48:53.624Z,22.07
2023-05-21T10:51:41.761Z,22.14
2023-05-21T10:54:36.451Z,22.27
2023-05-21T10:57:15.163Z,22.31
2023-05-21T10:59:48.623Z,22.08
2023-05-21T11:02:16.096Z,22.35
2023-05-21T11:04:48.820Z,22.24
2023-05-21T11:07:22.683Z,22.28
2023-05-21T11:09:50.880Z,22.31
2023-05-21T11:12:17.962Z,22.39
2023-05-21T11:14:57.887Z,22.34
2023-05-21T11:17:40.708Z,22.31
2023-05-21T11:20:16.881Z,22.37
2023-05-21T11:22:46.583Z,22.56
2023-05-21T11:25:13.054Z,22.91
2023-05-21T11:27:42.828Z,23.13
2023-05-21T11:30:17.414Z,23.38
2023-05-21T11:33:10.719Z,23.34
2023-05-21T11:35:46.128Z,23.28
2023-05-21T11:38:12.565Z,23.31
2023-05-21T11:40:51.658Z,23.48
2023-05-21T11:43:18.547Z,23.45
2023-05-21T11:45:47.321Z,23.54
2023-05-21T11:48:15.498Z,23.52
2023-05-21T11:50:45.135Z,23.73
2023-05-21T11:53:12.279Z,23.89
2023-05-21T11:55:43.641Z,23.84
2023-05-21T11:58:13.559Z,23.84
2023-05-21T12:00:40.800Z,23.78
2023-05-21T12:03:08.446Z,23.86
2023-05-21T12:05:53.989Z,23.93
2023-05-21T12:08:27.294Z,24.27
2023-05-21T12:11:01.746Z,24.47
2023-05-21T12:13:28.725Z,24.65
2023-05-21T12:15:55.278Z,24.65
2023-05-21T12:18:22.274Z,24.58
2023-05-21T12:20:48.861Z,24.69
2023-05-21T12:23:25.016Z,24.75
2023-05-21T12:25:53.573Z,24.93
2023-05-21T12:28:21.840Z,24.94
2023-05-21T12:30:48.430Z,24.92
2023-05-21T12:33:14.883Z,25.04
2023-05-21T12:35:41.339Z,25.02
2023-05-21T12:38:09.690Z,24.80
2023-05-21T12:40:40.540Z,24.67
2023-05-21T12:43:07.356Z,24.71
2023-05-21T12:45:34.527Z,24.87
2023-05-21T12:48:02.181Z,24.87
2023-05-21T12:50:28.704Z,24.99
2023-05-21T12:52:56.238Z,25.15
2023-05-21T12:55:25.583Z,25.29
2023-05-21T12:58:08.651Z,25.22
2023-05-21T13:00:35.964Z,24.94
2023-05-21T13:03:04.437Z,24.90
2023-05-21T13:05:31.292Z,25.14
2023-05-21T13:07:57.759Z,25.02
2023-05-21T13:10:24.209Z,25.01
2023-05-21T13:12:50.610Z,25.17
2023-05-21T13:15:17.285Z,25.27
2023-05-21T13:17:43.863Z,25.09
2023-05-21T13:20:12.409Z,25.33
2023-05-21T13:22:43.820Z,25.31
2023-05-21T13:25:11.941Z,25.29
2023-05-21T13:27:42.902Z,25.05
2023-05-21T13:30:11.735Z,25.08
2023-05-21T13:32:40.018Z,25.07
2023-05-21T13:35:07.424Z,25.06
2023-05-21T13:37:37.414Z,25.22
2023-05-21T13:40:12.278Z,25.31
2023-05-21T13:42:38.964Z,25.21
2023-05-21T13:45:10.837Z,25.31
2023-05-21T13:47:40.382Z,25.64
2023-05-21T13:50:10.816Z,25.66
2023-05-21T13:52:38.375Z,25.51
2023-05-21T13:55:05.912Z,25.69
2023-05-21T13:57:33.630Z,25.93
2023-05-21T14:00:00.830Z,25.90
2023-05-21T14:02:27.496Z,25.97
2023-05-21T14:04:54.360Z,25.88
2023-05-21T14:07:22.069Z,25.69
2023-05-21T14:09:48.904Z,25.78
2023-05-21T14:12:15.711Z,25.94
2023-05-21T14:14:42.357Z,26.12
2023-05-21T14:17:09.037Z,26.13
2023-05-21T14:19:35.800Z,25.91
2023-05-21T14:22:02.557Z,26.05
2023-05-21T14:24:29.131Z,26.00
2023-05-21T14:26:55.615Z,25.98
2023-05-21T14:29:22.031Z,26.26
2023-05-21T14:31:48.722Z,26.33
2023-05-21T14:34:15.413Z,26.18
2023-05-21T14:36:42.224Z,26.24
2023-05-21T14:39:08.731Z,26.24
2023-05-21T14:41:39.687Z,26.35
2023-05-21T14:44:06.273Z,26.35
2023-05-21T14:46:33.116Z,26.49
2023-05-21T14:49:00.538Z,26.62
2023-05-21T14:51:27.083Z,26.55
2023-05-21T14:53:53.622Z,26.62
2023-05-21T14:56:21.935Z,26.52
2023-05-21T14:58:48.560Z,26.37
2023-05-21T15:01:15.072Z,26.20
2023-05-21T15:03:41.697Z,26.18
2023-05-21T15:06:08.487Z,26.36
2023-05-21T15:08:35.023Z,26.42
2023-05-21T15:11:01.481Z,26.32
2023-05-21T15:13:28.040Z,26.41
2023-05-21T15:15:55.793Z,26.51
2023-05-21T15:18:22.333Z,26.40
2023-05-21T15:20:48.746Z,26.35
2023-05-21T15:23:17.813Z,26.31
2023-05-21T15:25:45.255Z,26.25
2023-05-21T15:28:12.227Z,26.21
2023-05-21T15:30:40.102Z,26.15
2023-05-21T15:33:06.615Z,26.17
2023-05-21T15:35:33.452Z,26.17
2023-05-21T15:38:00.254Z,26.05
2023-05-21T15:40:27.365Z,25.86
2023-05-21T15:42:54.321Z,25.87
2023-05-21T15:45:21.002Z,25.92
2023-05-21T15:47:47.626Z,25.84
2023-05-21T15:50:14.178Z,26.00
2023-05-21T15:52:41.849Z,25.98
2023-05-21T15:55:08.887Z,26.03
2023-05-21T15:57:35.481Z,25.80
2023-05-21T16:00:02.097Z,25.69
2023-05-21T16:02:28.595Z,25.64
2023-05-21T16:04:55.116Z,25.49
2023-05-21T16:07:23.288Z,25.56
2023-05-21T16:09:49.798Z,25.47
2023-05-21T16:12:16.495Z,25.45
2023-05-21T16:14:43.105Z,25.48
2023-05-21T16:17:20.063Z,25.36
2023-05-21T16:19:47.260Z,25.42
2023-05-21T16:22:14.624Z,25.62
2023-05-21T16:24:41.222Z,25.58
2023-05-21T16:27:07.688Z,25.22
2023-05-21T16:29:34.268Z,25.12
2023-05-21T16:32:00.799Z,25.13
2023-05-21T16:34:27.355Z,25.10
2023-05-21T16:36:57.450Z,24.98
2023-05-21T16:39:24.147Z,24.84
2023-05-21T16:41:50.975Z,24.81
2023-05-21T16:44:17.518Z,24.71
2023-05-21T16:46:43.996Z,24.72
2023-05-21T16:49:10.490Z,24.80
2023-05-21T16:51:36.952Z,24.72
2023-05-21T16:54:04.844Z,24.60
2023-05-21T16:56:31.505Z,24.47
2023-05-21T16:58:57.918Z,24.31
2023-05-21T17:01:24.424Z,24.20
2023-05-21T17:03:51.117Z,24.07
2023-05-21T17:06:17.685Z,23.86
2023-05-21T17:08:44.149Z,23.81
2023-05-21T17:11:10.808Z,23.78
2023-05-21T17:13:37.296Z,23.65
2023-05-21T17:16:05.946Z,23.59
2023-05-21T17:18:32.460Z,23.46
2023-05-21T17:20:59.067Z,23.36
2023-05-21T17:23:25.639Z,23.28
2023-05-21T17:25:52.531Z,23.18
2023-05-21T17:28:19.379Z,23.13
2023-05-21T17:30:48.027Z,23.18
2023-05-21T17:33:16.194Z,23.00
2023-05-21T17:35:42.677Z,22.86
2023-05-21T17:38:09.390Z,22.74
2023-05-21T17:40:35.964Z,22.74
2023-05-21T17:43:03.060Z,22.63
2023-05-21T17:45:29.529Z,22.56
2023-05-21T17:47:59.695Z,22.43
2023-05-21T17:50:26.757Z,22.47
2023-05-21T17:52:53.135Z,22.42
2023-05-21T17:55:19.595Z,22.11
2023-05-21T17:57:46.022Z,21.98
2023-05-21T18:00:12.923Z,21.88
2023-05-21T18:02:39.499Z,21.81
2023-05-21T18:05:06.352Z,21.71
2023-05-21T18:07:32.817Z,21.65
2023-05-21T18:09:59.317Z,21.64
2023-05-21T18:12:25.735Z,21.60
2023-05-21T18:14:52.278Z,21.59
2023-05-21T18:17:18.737Z,21.55
2023-05-21T18:19:45.352Z,21.49
2023-05-21T18:22:11.912Z,21.41
2023-05-21T18:24:39.563Z,21.27
2023-05-21T18:27:06.232Z,21.24
2023-05-21T18:29:32.796Z,21.22
2023-05-21T18:31:59.547Z,21.21
2023-05-21T18:34:26.047Z,21.03
2023-05-21T18:36:54.654Z,20.93
2023-05-21T18:39:24.580Z,20.93
2023-05-21T18:41:55.763Z,20.84
2023-05-21T18:44:29.639Z,20.83
2023-05-21T18:46:57.664Z,20.76
2023-05-21T18:49:24.579Z,20.68
2023-05-21T18:51:51.118Z,20.55
2023-05-21T18:54:17.549Z,20.44
2023-05-21T18:56:44.008Z,20.43
2023-05-21T18:59:10.523Z,20.31
2023-05-21T19:01:37.178Z,20.17
2023-05-21T19:04:03.977Z,20.14
2023-05-21T19:06:31.483Z,20.11
2023-05-21T19:08:57.972Z,20.05
2023-05-21T19:11:29.937Z,19.92
2023-05-21T19:13:56.974Z,19.86
2023-05-21T19:16:24.597Z,19.78
2023-05-21T19:18:51.250Z,19.68
2023-05-21T19:21:17.763Z,19.67
2023-05-21T19:23:52.768Z,19.64
2023-05-21T19:26:21.381Z,19.54
2023-05-21T19:28:52.724Z,19.48
2023-05-21T19:31:19.956Z,19.34
2023-05-21T19:33:46.552Z,19.24
2023-05-21T19:36:13.231Z,19.18
2023-05-21T19:38:48.654Z,19.12
2023-05-21T19:41:16.396Z,19.06
2023-05-21T19:43:42.843Z,18.98
2023-05-21T19:46:09.842Z,18.83
2023-05-21T19:48:36.352Z,18.78
2023-05-21T19:51:03.440Z,18.77
2023-05-21T19:53:29.905Z,18.71
2023-05-21T19:55:56.561Z,18.71
2023-05-21T19:58:26.753Z,18.59
2023-05-21T20:00:55.769Z,18.54
2023-05-21T20:03:22.279Z,18.48
2023-05-21T20:05:48.726Z,18.38
2023-05-21T20:08:16.439Z,18.33
2023-05-21T20:10:42.981Z,18.30
2023-05-21T20:13:09.422Z,18.22
2023-05-21T20:15:36.015Z,18.17
2023-05-21T20:18:02.583Z,18.09
2023-05-21T20:20:29.146Z,18.00
2023-05-21T20:23:03.114Z,17.97
2023-05-21T20:25:30.208Z,17.92
2023-05-21T20:27:58.002Z,17.86
2023-05-21T20:30:32.612Z,17.80
2023-05-21T20:33:02.946Z,17.71
2023-05-21T20:35:30.170Z,17.62
2023-05-21T20:37:56.764Z,17.53
2023-05-21T20:40:23.243Z,17.48
2023-05-21T20:42:51.874Z,17.42
2023-05-21T20:45:18.434Z,17.37
2023-05-21T20:47:45.008Z,17.33
2023-05-21T20:50:12.150Z,17.29
2023-05-21T20:52:38.765Z,17.23
2023-05-21T20:55:05.638Z,17.21
2023-05-21T20:57:32.507Z,17.17
2023-05-21T20:59:59.002Z,17.10
2023-05-21T21:02:25.532Z,17.09
2023-05-21T21:04:53.678Z,17.02
2023-05-21T21:07:20.321Z,16.96
2023-05-21T21:09:48.642Z,16.92
2023-05-21T21:12:25.783Z,16.87
2023-05-21T21:14:54.302Z,16.84
2023-05-21T21:17:21.039Z,16.81
2023-05-21T21:19:47.501Z,16.79
2023-05-21T21:22:15.189Z,16.78
2023-05-21T21:24:41.770Z,16.77
2023-05-21T21:27:08.267Z,16.73
2023-05-21T21:29:34.659Z,16.69
2023-05-21T21:32:01.424Z,16.67
2023-05-21T21:34:27.891Z,16.64
2023-05-21T21:36:54.486Z,16.62
2023-05-21T21:39:20.909Z,16.56
2023-05-21T21:41:47.404Z,16.54
2023-05-21T21:44:13.925Z,16.52
2023-05-21T21:46:40.510Z,16.51
2023-05-21T21:49:06.945Z,16.50
2023-05-21T21:51:33.973Z,16.47
2023-05-21T21:54:00.580Z,16.43
2023-05-21T21:56:27.111Z,16.41
2023-05-21T21:58:53.566Z,16.39
2023-05-21T22:01:20.221Z,16.36
2023-05-21T22:03:46.802Z,16.32
2023-05-21T22:06:13.360Z,16.29
2023-05-21T22:08:40.480Z,16.30
2023-05-21T22:11:07.050Z,16.23
2023-05-21T22:13:34.271Z,16.19
2023-05-21T22:16:02.090Z,16.18
2023-05-21T22:18:40.446Z,16.14
2023-05-21T22:21:14.150Z,16.13
2023-05-21T22:23:41.116Z,16.06
2023-05-21T22:26:07.663Z,16.05
2023-05-21T22:28:34.254Z,16.01
2023-05-21T22:31:00.883Z,16.00
2023-05-21T22:33:27.393Z,16.00
2023-05-21T22:35:54.596Z,15.95
2023-05-21T22:38:21.505Z,15.90
2023-05-21T22:40:48.105Z,15.88
2023-05-21T22:43:14.761Z,15.85
2023-05-21T22:45:41.206Z,15.80
2023-05-21T22:48:09.507Z,15.78
2023-05-21T22:50:36.465Z,15.73
2023-05-21T22:53:03.175Z,15.74
2023-05-21T22:55:29.797Z,15.70
2023-05-21T22:57:56.409Z,15.70
2023-05-21T23:00:23.241Z,15.71
2023-05-21T23:02:52.216Z,15.68
2023-05-21T23:05:20.435Z,15.70
2023-05-21T23:07:50.098Z,15.67
2023-05-21T23:10:16.668Z,15.70
2023-05-21T23:12:43.381Z,15.70
2023-05-21T23:15:10.700Z,15.71
2023-05-21T23:17:37.775Z,15.69
2023-05-21T23:20:05.599Z,15.70
2023-05-21T23:22:32.072Z,15.74
2023-05-21T23:24:58.554Z,15.76
2023-05-21T23:27:25.055Z,15.79
2023-05-21T23:29:51.474Z,15.80
2023-05-21T23:32:18.013Z,15.83
2023-05-21T23:34:44.649Z,15.86
2023-05-21T23:37:11.312Z,15.90
2023-05-21T23:39:37.970Z,15.87
2023-05-21T23:42:04.898Z,15.82
2023-05-21T23:44:31.421Z,15.82
2023-05-21T23:46:57.910Z,15.86
2023-05-21T23:49:24.322Z,15.85
2023-05-21T23:51:51.040Z,15.84
2023-05-21T23:54:18.240Z,15.79
2023-05-21T23:56:45.274Z,15.78
2023-05-21T23:59:11.723Z,15.74
